createdAt,value
2019-03-18T00:00:12.527Z,5.80
2019-03-18T00:01:12.567Z,5.50
2019-03-18T00:02:12.572Z,5.30
2019-03-18T00:03:12.597Z,6.10
2019-03-18T00:04:12.621Z,7.20
2019-03-18T00:05:12.646Z,7.00
2019-03-18T00:06:12.669Z,7.60
2019-03-18T00:07:12.694Z,13.20
2019-03-18T00:08:12.719Z,24.60
2019-03-18T00:09:12.743Z,27.00
2019-03-18T00:10:12.766Z,29.50
2019-03-18T00:11:12.791Z,40.00
2019-03-18T00:12:12.814Z,30.30
2019-03-18T00:13:12.840Z,32.70
2019-03-18T00:14:12.864Z,14.80
2019-03-18T00:15:12.891Z,5.70
2019-03-18T00:16:12.911Z,5.90
2019-03-18T00:17:12.937Z,5.70
2019-03-18T00:18:12.958Z,5.00
2019-03-18T00:19:12.984Z,5.70
2019-03-18T00:20:13.009Z,5.30
2019-03-18T00:21:13.034Z,6.10
2019-03-18T00:22:13.056Z,6.80
2019-03-18T00:23:13.087Z,9.30
2019-03-18T00:24:13.104Z,9.90
2019-03-18T00:25:13.130Z,12.30
2019-03-18T00:26:13.155Z,7.00
2019-03-18T00:27:13.176Z,6.50
2019-03-18T00:28:13.200Z,6.50
2019-03-18T00:29:13.229Z,5.50
2019-03-18T00:30:13.248Z,5.40
2019-03-18T00:31:13.274Z,6.90
2019-03-18T00:32:13.348Z,5.40
2019-03-18T00:33:13.323Z,5.40
2019-03-18T00:34:13.345Z,4.70
2019-03-18T00:35:13.370Z,6.00
2019-03-18T00:36:13.393Z,5.50
2019-03-18T00:37:13.434Z,6.60
2019-03-18T00:38:13.442Z,6.70
2019-03-18T00:39:13.467Z,10.00
2019-03-18T00:40:13.491Z,6.40
2019-03-18T00:41:13.517Z,6.10
2019-03-18T00:42:13.537Z,6.20
2019-03-18T00:43:13.563Z,5.60
2019-03-18T00:44:13.588Z,5.50
2019-03-18T00:45:15.250Z,5.80
2019-03-18T00:46:13.635Z,4.70
2019-03-18T00:47:13.660Z,5.90
2019-03-18T00:48:13.684Z,7.00
2019-03-18T00:49:13.709Z,5.50
2019-03-18T00:50:13.732Z,5.00
2019-03-18T00:51:13.759Z,4.50
2019-03-18T00:52:13.780Z,6.00
2019-03-18T00:53:13.806Z,4.70
2019-03-18T00:54:13.829Z,5.30
2019-03-18T00:55:13.857Z,6.20
2019-03-18T00:56:13.879Z,8.20
2019-03-18T00:57:13.903Z,7.20
2019-03-18T00:58:13.927Z,7.60
2019-03-18T00:59:13.950Z,6.40
2019-03-18T01:00:13.980Z,7.80
2019-03-18T01:01:14.000Z,6.90
2019-03-18T01:02:14.036Z,6.70
2019-03-18T01:03:14.048Z,6.20
2019-03-18T01:04:14.076Z,4.60
2019-03-18T01:05:14.100Z,4.70
2019-03-18T01:06:14.121Z,7.10
2019-03-18T01:07:14.149Z,5.30
2019-03-18T01:08:14.170Z,5.90
2019-03-18T01:09:14.194Z,6.80
2019-03-18T01:10:14.218Z,5.60
2019-03-18T01:11:14.244Z,6.10
2019-03-18T01:12:14.269Z,6.30
2019-03-18T01:13:14.296Z,6.30
2019-03-18T01:14:14.316Z,6.20
2019-03-18T01:15:26.806Z,6.70
2019-03-18T01:16:14.369Z,7.10
2019-03-18T01:17:14.392Z,6.90
2019-03-18T01:18:14.416Z,7.00
2019-03-18T01:19:14.439Z,6.50
2019-03-18T01:20:14.464Z,6.10
2019-03-18T01:21:14.495Z,6.90
2019-03-18T01:22:14.513Z,6.60
2019-03-18T01:23:14.537Z,6.80
2019-03-18T01:24:14.563Z,6.40
2019-03-18T01:25:14.589Z,7.10
2019-03-18T01:26:14.611Z,9.60
2019-03-18T01:27:14.637Z,6.90
2019-03-18T01:28:14.661Z,6.90
2019-03-18T01:29:14.686Z,6.80
2019-03-18T01:30:14.709Z,6.40
2019-03-18T01:31:14.735Z,8.10
2019-03-18T01:32:14.760Z,6.40
2019-03-18T01:33:14.785Z,9.30
2019-03-18T01:34:14.809Z,8.30
2019-03-18T01:35:14.835Z,9.60
2019-03-18T01:36:14.859Z,7.10
2019-03-18T01:37:14.885Z,8.60
2019-03-18T01:38:14.909Z,8.30
2019-03-18T01:39:14.934Z,8.70
2019-03-18T01:40:14.960Z,12.80
2019-03-18T01:41:14.985Z,9.70
2019-03-18T01:42:16.878Z,8.00
2019-03-18T01:43:15.042Z,8.10
2019-03-18T01:44:15.060Z,8.80
2019-03-18T01:45:15.084Z,9.90
2019-03-18T01:46:15.108Z,8.90
2019-03-18T01:47:15.134Z,10.20
2019-03-18T01:48:15.157Z,11.80
2019-03-18T01:49:15.184Z,9.70
2019-03-18T01:50:15.213Z,10.60
2019-03-18T01:51:15.233Z,7.50
2019-03-18T01:52:15.259Z,6.10
2019-03-18T01:53:15.282Z,6.80
2019-03-18T01:54:15.307Z,7.90
2019-03-18T01:55:15.332Z,7.70
2019-03-18T01:56:15.358Z,7.00
2019-03-18T01:57:15.384Z,6.70
2019-03-18T01:58:15.438Z,7.90
2019-03-18T01:59:15.435Z,7.70
2019-03-18T02:00:15.465Z,8.50
2019-03-18T02:01:15.487Z,8.70
2019-03-18T02:02:15.508Z,8.20
2019-03-18T02:03:15.535Z,9.20
2019-03-18T02:04:15.560Z,10.20
2019-03-18T02:05:15.594Z,9.40
2019-03-18T02:06:15.611Z,8.00
2019-03-18T02:07:15.636Z,9.70
2019-03-18T02:08:15.660Z,9.40
2019-03-18T02:09:15.686Z,7.10
2019-03-18T02:10:15.768Z,10.50
2019-03-18T02:11:15.736Z,9.00
2019-03-18T02:12:15.762Z,9.60
2019-03-18T02:13:15.788Z,8.20
2019-03-18T02:14:15.811Z,12.40
2019-03-18T02:15:15.838Z,7.50
2019-03-18T02:16:15.861Z,9.00
2019-03-18T02:17:15.888Z,6.70
2019-03-18T02:18:15.913Z,7.20
2019-03-18T02:19:15.944Z,7.20
2019-03-18T02:20:19.207Z,6.30
2019-03-18T02:21:15.989Z,6.10
2019-03-18T02:22:16.014Z,6.90
2019-03-18T02:23:16.040Z,7.00
2019-03-18T02:24:16.065Z,6.90
2019-03-18T02:25:16.092Z,7.40
2019-03-18T02:26:16.117Z,6.90
2019-03-18T02:27:16.145Z,6.00
2019-03-18T02:28:16.177Z,8.40
2019-03-18T02:29:16.193Z,8.20
2019-03-18T02:30:16.228Z,7.10
2019-03-18T02:31:16.245Z,6.30
2019-03-18T02:32:16.269Z,5.20
2019-03-18T02:33:16.319Z,6.60
2019-03-18T02:34:16.321Z,4.70
2019-03-18T02:35:16.349Z,6.50
2019-03-18T02:36:16.372Z,4.40
2019-03-18T02:37:16.398Z,3.90
2019-03-18T02:38:16.421Z,3.70
2019-03-18T02:39:16.452Z,3.60
2019-03-18T02:40:16.473Z,3.80
2019-03-18T02:41:16.499Z,4.60
2019-03-18T02:42:16.525Z,5.30
2019-03-18T02:43:16.749Z,4.80
2019-03-18T02:44:16.574Z,3.80
2019-03-18T02:45:16.621Z,3.10
2019-03-18T02:46:16.628Z,4.10
2019-03-18T02:47:16.650Z,4.30
2019-03-18T02:48:16.677Z,5.30
2019-03-18T02:49:16.703Z,3.30
2019-03-18T02:50:16.724Z,3.50
2019-03-18T02:51:16.751Z,2.80
2019-03-18T02:52:17.828Z,3.60
2019-03-18T02:53:16.813Z,4.00
2019-03-18T02:54:16.828Z,8.00
2019-03-18T02:55:16.854Z,3.70
2019-03-18T02:56:16.879Z,5.70
2019-03-18T02:57:16.918Z,5.50
2019-03-18T02:58:16.930Z,6.80
2019-03-18T02:59:16.961Z,7.30
2019-03-18T03:00:16.991Z,4.30
2019-03-18T03:01:17.005Z,5.50
2019-03-18T03:02:17.031Z,3.20
2019-03-18T03:03:17.057Z,5.60
2019-03-18T03:04:17.094Z,6.10
2019-03-18T03:05:17.109Z,4.90
2019-03-18T03:06:17.135Z,5.00
2019-03-18T03:07:17.165Z,5.10
2019-03-18T03:08:17.188Z,4.80
2019-03-18T03:09:17.211Z,7.40
2019-03-18T03:10:17.236Z,5.80
2019-03-18T03:11:17.266Z,5.40
2019-03-18T03:12:17.289Z,3.80
2019-03-18T03:13:17.315Z,3.40
2019-03-18T03:14:17.348Z,3.70
2019-03-18T03:15:17.367Z,5.90
2019-03-18T03:16:26.225Z,3.20
2019-03-18T03:17:21.503Z,3.70
2019-03-18T03:18:17.441Z,4.10
2019-03-18T03:19:17.467Z,4.60
2019-03-18T03:20:17.492Z,3.70
2019-03-18T03:21:17.520Z,5.90
2019-03-18T03:22:17.545Z,6.40
2019-03-18T03:23:17.574Z,5.50
2019-03-18T03:24:17.595Z,4.40
2019-03-18T03:25:17.822Z,6.10
2019-03-18T03:26:17.647Z,3.20
2019-03-18T03:27:17.673Z,3.80
2019-03-18T03:28:17.698Z,7.80
2019-03-18T03:29:17.733Z,4.50
2019-03-18T03:30:19.953Z,6.00
2019-03-18T03:31:17.775Z,7.30
2019-03-18T03:32:17.810Z,5.70
2019-03-18T03:33:17.848Z,5.50
2019-03-18T03:34:17.852Z,5.30
2019-03-18T03:35:17.921Z,5.20
2019-03-18T03:36:17.900Z,7.20
2019-03-18T03:37:17.932Z,7.80
2019-03-18T03:38:17.952Z,8.80
2019-03-18T03:39:17.976Z,4.50
2019-03-18T03:40:18.001Z,3.20
2019-03-18T03:41:18.736Z,6.20
2019-03-18T03:42:18.053Z,5.40
2019-03-18T03:43:18.080Z,4.30
2019-03-18T03:44:18.105Z,6.90
2019-03-18T03:45:18.128Z,4.50
2019-03-18T03:46:18.153Z,4.90
2019-03-18T03:47:18.178Z,4.60
2019-03-18T03:48:21.111Z,7.60
2019-03-18T03:49:18.237Z,4.30
2019-03-18T03:50:18.255Z,7.10
2019-03-18T03:51:18.288Z,4.90
2019-03-18T03:52:18.311Z,5.50
2019-03-18T03:53:18.332Z,4.40
2019-03-18T03:54:18.356Z,5.50
2019-03-18T03:55:18.380Z,6.00
2019-03-18T03:56:18.405Z,6.40
2019-03-18T03:57:18.435Z,5.90
2019-03-18T03:58:18.456Z,5.60
2019-03-18T03:59:18.480Z,5.40
2019-03-18T04:00:18.506Z,5.70
2019-03-18T04:01:18.544Z,4.20
2019-03-18T04:02:18.558Z,6.90
2019-03-18T04:03:18.582Z,6.30
2019-03-18T04:04:18.606Z,6.10
2019-03-18T04:05:18.634Z,5.80
2019-03-18T04:06:18.657Z,6.30
2019-03-18T04:07:18.681Z,4.80
2019-03-18T04:08:19.910Z,6.80
2019-03-18T04:09:18.749Z,6.10
2019-03-18T04:10:18.757Z,7.30
2019-03-18T04:11:18.789Z,6.20
2019-03-18T04:12:18.808Z,7.10
2019-03-18T04:13:18.833Z,5.30
2019-03-18T04:14:18.880Z,7.60
2019-03-18T04:15:18.909Z,7.70
2019-03-18T04:16:18.909Z,7.90
2019-03-18T04:17:18.938Z,7.20
2019-03-18T04:18:18.993Z,7.00
2019-03-18T04:19:18.998Z,6.00
2019-03-18T04:20:19.056Z,7.40
2019-03-18T04:21:19.037Z,7.00
2019-03-18T04:22:19.060Z,6.60
2019-03-18T04:23:19.083Z,6.70
2019-03-18T04:24:19.109Z,7.00
2019-03-18T04:25:19.135Z,6.40
2019-03-18T04:26:19.157Z,8.50
2019-03-18T04:27:24.616Z,5.90
2019-03-18T04:29:19.255Z,4.50
2019-03-18T04:30:19.281Z,5.40
2019-03-18T04:31:19.282Z,5.10
2019-03-18T04:32:19.307Z,4.20
2019-03-18T04:33:19.333Z,4.70
2019-03-18T04:34:19.357Z,3.90
2019-03-18T04:35:19.386Z,3.40
2019-03-18T04:36:19.411Z,4.50
2019-03-18T04:37:19.433Z,3.40
2019-03-18T04:38:19.464Z,3.60
2019-03-18T04:39:19.486Z,5.00
2019-03-18T04:40:19.506Z,3.20
2019-03-18T04:41:19.555Z,4.30
2019-03-18T04:42:19.557Z,3.40
2019-03-18T04:43:19.582Z,3.50
2019-03-18T04:44:19.608Z,3.80
2019-03-18T04:45:19.634Z,4.70
2019-03-18T04:46:19.656Z,5.30
2019-03-18T04:47:19.884Z,4.90
2019-03-18T04:48:19.706Z,4.40
2019-03-18T04:49:19.731Z,5.80
2019-03-18T04:50:19.756Z,5.60
2019-03-18T04:51:19.809Z,6.60
2019-03-18T04:52:19.807Z,8.40
2019-03-18T04:53:19.833Z,7.60
2019-03-18T04:54:19.857Z,5.60
2019-03-18T04:55:19.905Z,5.80
2019-03-18T04:56:19.930Z,5.80
2019-03-18T04:57:20.262Z,5.20
2019-03-18T04:58:19.958Z,4.20
2019-03-18T04:59:20.005Z,4.10
2019-03-18T05:00:20.006Z,3.60
2019-03-18T05:01:20.033Z,5.10
2019-03-18T05:02:20.057Z,3.80
2019-03-18T05:03:20.105Z,5.10
2019-03-18T05:04:20.436Z,4.80
2019-03-18T05:05:20.132Z,4.40
2019-03-18T05:06:20.185Z,4.30
2019-03-18T05:07:20.183Z,4.40
2019-03-18T05:08:20.208Z,4.50
2019-03-18T05:09:20.233Z,3.80
2019-03-18T05:10:20.257Z,4.10
2019-03-18T05:11:20.282Z,4.20
2019-03-18T05:12:20.308Z,4.40
2019-03-18T05:13:20.338Z,4.50
2019-03-18T05:14:20.359Z,4.30
2019-03-18T05:15:20.391Z,4.90
2019-03-18T05:16:20.410Z,4.90
2019-03-18T05:17:26.514Z,5.30
2019-03-18T05:18:20.480Z,5.20
2019-03-18T05:19:20.484Z,4.70
2019-03-18T05:20:20.509Z,4.80
2019-03-18T05:21:20.536Z,4.30
2019-03-18T05:22:20.559Z,4.70
2019-03-18T05:23:20.587Z,4.60
2019-03-18T05:24:20.610Z,5.50
2019-03-18T05:25:20.636Z,5.10
2019-03-18T05:26:22.378Z,3.90
2019-03-18T05:27:20.687Z,4.30
2019-03-18T05:28:20.712Z,4.30
2019-03-18T05:29:20.735Z,4.70
2019-03-18T05:30:20.764Z,4.00
2019-03-18T05:31:20.790Z,4.50
2019-03-18T05:32:20.814Z,4.80
2019-03-18T05:33:20.839Z,3.70
2019-03-18T05:34:20.862Z,3.70
2019-03-18T05:35:20.888Z,4.20
2019-03-18T05:36:20.915Z,3.60
2019-03-18T05:37:20.961Z,4.70
2019-03-18T05:38:20.964Z,3.90
2019-03-18T05:39:20.990Z,3.90
2019-03-18T05:41:21.037Z,4.20
2019-03-18T05:42:21.061Z,4.30
2019-03-18T05:43:21.109Z,3.70
2019-03-18T05:44:21.113Z,4.80
2019-03-18T05:45:21.162Z,5.40
2019-03-18T05:46:21.161Z,3.60
2019-03-18T05:47:21.186Z,6.40
2019-03-18T05:48:21.234Z,4.60
2019-03-18T05:49:21.236Z,5.40
2019-03-18T05:50:21.282Z,4.60
2019-03-18T05:51:21.489Z,5.40
2019-03-18T05:52:21.311Z,4.90
2019-03-18T05:56:21.436Z,5.30
2019-03-18T05:57:21.437Z,5.00
2019-03-18T05:58:21.461Z,4.70
2019-03-18T05:59:21.486Z,4.50
2019-03-18T06:00:21.511Z,4.60
2019-03-18T06:01:21.536Z,4.30
2019-03-18T06:02:21.560Z,5.30
2019-03-18T06:03:21.586Z,5.40
2019-03-18T06:04:21.612Z,5.30
2019-03-18T06:05:21.660Z,5.60
2019-03-18T06:06:21.665Z,5.30
2019-03-18T06:07:21.686Z,5.10
2019-03-18T06:08:21.712Z,5.00
2019-03-18T06:09:21.761Z,5.40
2019-03-18T06:10:21.759Z,4.50
2019-03-18T06:11:21.788Z,3.80
2019-03-18T06:12:21.813Z,4.50
2019-03-18T06:13:21.836Z,6.90
2019-03-18T06:14:21.861Z,4.50
2019-03-18T06:15:21.888Z,4.30
2019-03-18T06:16:21.913Z,5.30
2019-03-18T06:17:21.958Z,5.20
2019-03-18T06:18:22.492Z,5.10
2019-03-18T06:19:22.011Z,4.10
2019-03-18T06:20:22.012Z,3.80
2019-03-18T06:21:22.038Z,4.50
2019-03-18T06:22:22.289Z,3.50
2019-03-18T06:23:22.113Z,3.60
2019-03-18T06:24:22.361Z,3.50
2019-03-18T06:25:22.141Z,3.30
2019-03-18T06:26:22.164Z,2.80
2019-03-18T06:27:22.211Z,3.30
2019-03-18T06:28:22.747Z,3.50
2019-03-18T06:29:22.269Z,4.00
2019-03-18T06:30:22.268Z,3.30
2019-03-18T06:31:22.290Z,8.60
2019-03-18T06:33:22.345Z,4.40
2019-03-18T06:34:22.571Z,3.90
2019-03-18T06:35:22.417Z,4.20
2019-03-18T06:36:22.442Z,3.20
2019-03-18T06:37:22.444Z,3.70
2019-03-18T06:38:22.470Z,3.00
2019-03-18T06:39:22.495Z,3.30
2019-03-18T06:40:22.521Z,4.50
2019-03-18T06:41:22.550Z,3.90
2019-03-18T06:42:22.573Z,4.60
2019-03-18T06:43:22.599Z,3.60
2019-03-18T06:44:22.623Z,2.80
2019-03-18T06:45:22.649Z,2.80
2019-03-18T06:46:22.674Z,3.10
2019-03-18T06:47:22.702Z,3.30
2019-03-18T06:48:22.727Z,3.30
2019-03-18T06:49:22.757Z,5.40
2019-03-18T06:50:22.779Z,3.50
2019-03-18T06:51:22.809Z,2.80
2019-03-18T06:52:22.831Z,2.90
2019-03-18T06:53:22.856Z,2.70
2019-03-18T06:54:22.885Z,2.80
2019-03-18T06:55:22.908Z,3.60
2019-03-18T06:56:22.936Z,3.20
2019-03-18T06:57:22.959Z,6.60
2019-03-18T06:58:23.000Z,3.90
2019-03-18T06:59:23.016Z,5.40
2019-03-18T07:00:23.038Z,3.10
2019-03-18T07:01:23.068Z,3.50
2019-03-18T07:02:23.090Z,3.00
2019-03-18T07:03:23.114Z,4.10
2019-03-18T07:04:23.147Z,3.40
2019-03-18T07:05:23.167Z,7.00
2019-03-18T07:06:23.220Z,5.10
2019-03-18T07:07:23.242Z,5.10
2019-03-18T07:08:23.246Z,3.70
2019-03-18T07:09:23.273Z,3.40
2019-03-18T07:10:23.300Z,3.80
2019-03-18T07:11:23.323Z,4.10
2019-03-18T07:12:23.350Z,4.70
2019-03-18T07:13:23.377Z,3.80
2019-03-18T07:14:23.404Z,5.40
2019-03-18T07:15:23.434Z,3.40
2019-03-18T07:16:23.455Z,4.30
2019-03-18T07:17:23.484Z,4.70
2019-03-18T07:18:23.512Z,4.40
2019-03-18T07:19:23.534Z,3.40
2019-03-18T07:20:23.560Z,3.80
2019-03-18T07:21:23.591Z,3.60
2019-03-18T07:22:23.615Z,3.40
2019-03-18T07:23:23.639Z,3.00
2019-03-18T07:24:23.721Z,3.90
2019-03-18T07:25:23.694Z,4.40
2019-03-18T07:26:23.719Z,3.30
2019-03-18T07:27:23.757Z,3.20
2019-03-18T07:28:23.783Z,3.60
2019-03-18T07:29:23.813Z,3.30
2019-03-18T07:30:23.826Z,3.30
2019-03-18T07:31:23.854Z,4.50
2019-03-18T07:32:23.879Z,3.90
2019-03-18T07:33:23.906Z,4.30
2019-03-18T07:34:23.933Z,4.60
2019-03-18T07:35:23.959Z,3.70
2019-03-18T07:36:24.001Z,4.00
2019-03-18T07:37:24.033Z,4.20
2019-03-18T07:38:24.040Z,2.90
2019-03-18T07:39:24.074Z,3.70
2019-03-18T07:40:24.095Z,4.00
2019-03-18T07:41:24.123Z,3.30
2019-03-18T07:42:24.150Z,3.90
2019-03-18T07:43:24.177Z,3.50
2019-03-18T07:44:24.287Z,4.50
2019-03-18T07:45:24.235Z,4.50
2019-03-18T07:46:24.260Z,4.30
2019-03-18T07:47:24.286Z,3.60
2019-03-18T07:48:30.753Z,3.60
2019-03-18T07:49:24.340Z,4.30
2019-03-18T07:50:24.367Z,3.70
2019-03-18T07:51:24.394Z,3.80
2019-03-18T07:52:24.436Z,4.20
2019-03-18T07:53:24.449Z,4.30
2019-03-18T07:54:32.750Z,4.90
2019-03-18T07:55:24.503Z,4.50
2019-03-18T07:56:24.533Z,5.00
2019-03-18T07:57:24.559Z,4.40
2019-03-18T07:58:24.583Z,4.90
2019-03-18T07:59:24.611Z,4.30
2019-03-18T08:00:24.641Z,5.10
2019-03-18T08:01:24.667Z,7.30
2019-03-18T08:02:24.691Z,5.80
2019-03-18T08:03:24.719Z,6.20
2019-03-18T08:04:36.434Z,6.90
2019-03-18T08:05:24.775Z,5.50
2019-03-18T08:06:24.802Z,9.90
2019-03-18T08:07:24.833Z,6.20
2019-03-18T08:08:24.879Z,5.80
2019-03-18T08:09:24.885Z,8.10
2019-03-18T08:10:24.911Z,7.20
2019-03-18T08:11:24.938Z,6.30
2019-03-18T08:12:24.967Z,6.50
2019-03-18T08:13:24.999Z,8.10
2019-03-18T08:14:25.028Z,6.50
2019-03-18T08:15:25.048Z,5.90
2019-03-18T08:16:25.100Z,5.40
2019-03-18T08:17:25.158Z,4.80
2019-03-18T08:18:25.458Z,6.80
2019-03-18T08:19:25.158Z,4.10
2019-03-18T08:20:25.184Z,3.10
2019-03-18T08:21:25.213Z,3.80
2019-03-18T08:22:25.244Z,3.30
2019-03-18T08:23:25.266Z,2.90
2019-03-18T08:24:25.293Z,3.00
2019-03-18T08:25:25.322Z,2.80
2019-03-18T08:26:27.245Z,3.20
2019-03-18T08:27:25.377Z,3.40
2019-03-18T08:28:25.405Z,3.20
2019-03-18T08:29:25.434Z,4.10
2019-03-18T08:30:25.462Z,2.90
2019-03-18T08:31:25.486Z,2.70
2019-03-18T08:32:25.514Z,3.10
2019-03-18T08:33:25.541Z,2.80
2019-03-18T08:34:25.572Z,3.30
2019-03-18T08:35:25.598Z,4.20
2019-03-18T08:36:25.623Z,3.10
2019-03-18T08:37:25.652Z,2.30
2019-03-18T08:38:25.678Z,2.50
2019-03-18T08:39:25.707Z,2.70
2019-03-18T08:40:25.736Z,2.80
2019-03-18T08:41:25.763Z,2.60
2019-03-18T08:42:25.801Z,3.00
2019-03-18T08:43:25.820Z,3.30
2019-03-18T08:44:25.847Z,3.40
2019-03-18T08:45:25.876Z,4.10
2019-03-18T08:46:25.908Z,2.30
2019-03-18T08:47:25.932Z,2.40
2019-03-18T08:48:25.961Z,2.30
2019-03-18T08:49:25.988Z,3.90
2019-03-18T08:50:26.017Z,2.00
2019-03-18T08:51:26.052Z,3.80
2019-03-18T08:52:26.073Z,3.30
2019-03-18T08:53:26.101Z,2.30
2019-03-18T08:54:26.131Z,3.50
2019-03-18T08:55:28.020Z,4.80
2019-03-18T08:56:26.190Z,1.90
2019-03-18T08:57:26.220Z,2.00
2019-03-18T08:58:26.246Z,2.40
2019-03-18T08:59:26.277Z,1.60
2019-03-18T09:00:26.306Z,3.40
2019-03-18T09:01:26.336Z,2.20
2019-03-18T09:02:26.364Z,1.40
2019-03-18T09:03:26.395Z,1.60
2019-03-18T09:04:26.425Z,2.00
2019-03-18T09:05:26.454Z,3.00
2019-03-18T09:06:26.483Z,1.50
2019-03-18T09:07:26.514Z,1.50
2019-03-18T09:08:26.673Z,1.70
2019-03-18T09:09:26.572Z,3.20
2019-03-18T09:10:26.608Z,2.00
2019-03-18T09:11:26.633Z,1.70
2019-03-18T09:12:26.665Z,2.30
2019-03-18T09:13:26.691Z,1.60
2019-03-18T09:14:26.718Z,1.80
2019-03-18T09:15:26.748Z,2.30
2019-03-18T09:16:26.778Z,2.40
2019-03-18T09:17:26.805Z,1.50
2019-03-18T09:18:26.837Z,4.40
2019-03-18T09:19:26.868Z,1.40
2019-03-18T09:20:26.894Z,1.80
2019-03-18T09:21:26.922Z,4.20
2019-03-18T09:22:26.951Z,1.90
2019-03-18T09:23:26.983Z,1.70
2019-03-18T09:24:27.010Z,1.30
2019-03-18T09:25:27.038Z,2.60
2019-03-18T09:26:27.067Z,2.70
2019-03-18T09:27:27.099Z,3.80
2019-03-18T09:28:27.127Z,1.60
2019-03-18T09:29:27.154Z,2.20
2019-03-18T09:30:27.184Z,1.80
2019-03-18T09:31:27.247Z,3.10
2019-03-18T09:32:27.241Z,4.70
2019-03-18T09:33:27.271Z,7.70
2019-03-18T09:34:27.296Z,3.00
2019-03-18T09:35:27.327Z,2.80
2019-03-18T09:36:27.354Z,2.00
2019-03-18T09:37:27.383Z,1.60
2019-03-18T09:38:27.412Z,3.50
2019-03-18T09:39:27.440Z,2.70
2019-03-18T09:40:29.379Z,2.90
2019-03-18T09:41:27.499Z,2.80
2019-03-18T09:42:27.530Z,3.40
2019-03-18T09:43:27.556Z,2.50
2019-03-18T09:44:27.583Z,2.20
2019-03-18T09:45:27.613Z,2.20
2019-03-18T09:46:27.643Z,2.10
2019-03-18T09:47:27.672Z,2.00
2019-03-18T09:48:27.700Z,3.20
2019-03-18T09:49:27.729Z,4.20
2019-03-18T09:50:27.759Z,2.40
2019-03-18T09:51:27.785Z,5.10
2019-03-18T09:52:27.814Z,4.10
2019-03-18T09:53:27.844Z,1.70
2019-03-18T09:54:27.872Z,2.10
2019-03-18T09:55:27.902Z,3.60
2019-03-18T09:56:27.932Z,3.10
2019-03-18T09:57:27.960Z,3.10
2019-03-18T09:58:27.989Z,2.60
2019-03-18T09:59:28.019Z,4.40
2019-03-18T10:00:28.047Z,3.70
2019-03-18T10:01:28.081Z,2.70
2019-03-18T10:02:28.107Z,2.20
2019-03-18T10:03:28.138Z,3.60
2019-03-18T10:04:28.165Z,2.00
2019-03-18T10:05:28.202Z,5.10
2019-03-18T10:06:28.223Z,1.70
2019-03-18T10:07:28.253Z,3.20
2019-03-18T10:08:28.283Z,2.70
2019-03-18T10:09:28.312Z,2.20
2019-03-18T10:10:28.342Z,3.60
2019-03-18T10:11:28.373Z,1.70
2019-03-18T10:12:28.403Z,4.20
2019-03-18T10:13:28.433Z,2.40
2019-03-18T10:14:28.462Z,2.60
2019-03-18T10:15:28.491Z,3.40
2019-03-18T10:16:28.527Z,2.80
2019-03-18T10:17:28.555Z,2.50
2019-03-18T10:18:31.813Z,4.20
2019-03-18T10:19:33.523Z,3.30
2019-03-18T10:20:28.649Z,5.40
2019-03-18T10:21:28.686Z,4.70
2019-03-18T10:22:28.708Z,6.50
2019-03-18T10:23:28.738Z,2.60
2019-03-18T10:24:28.768Z,2.30
2019-03-18T10:25:28.800Z,3.60
2019-03-18T10:26:28.830Z,3.40
2019-03-18T10:27:29.194Z,2.00
2019-03-18T10:28:28.917Z,4.80
2019-03-18T10:29:28.953Z,3.20
2019-03-18T10:30:28.955Z,3.70
2019-03-18T10:31:28.986Z,2.20
2019-03-18T10:32:29.018Z,5.50
2019-03-18T10:33:29.051Z,4.10
2019-03-18T10:34:29.128Z,4.30
2019-03-18T10:35:29.109Z,6.40
2019-03-18T10:36:29.140Z,3.80
2019-03-18T10:37:29.184Z,3.50
2019-03-18T10:38:29.202Z,2.20
2019-03-18T10:40:29.292Z,5.40
2019-03-18T10:41:29.298Z,3.10
2019-03-18T10:42:29.531Z,4.70
2019-03-18T10:43:29.386Z,3.60
2019-03-18T10:45:29.458Z,4.60
2019-03-18T10:46:29.458Z,3.40
2019-03-18T10:47:29.487Z,5.60
2019-03-18T10:48:29.576Z,3.10
2019-03-18T10:49:29.550Z,3.70
2019-03-18T10:50:29.583Z,7.80
2019-03-18T10:51:31.783Z,3.60
2019-03-18T10:52:29.647Z,2.80
2019-03-18T10:53:29.703Z,3.20
2019-03-18T10:54:31.075Z,4.40
2019-03-18T10:55:29.743Z,3.70
2019-03-18T10:56:29.776Z,5.50
2019-03-18T10:57:29.826Z,4.10
2019-03-18T10:58:29.847Z,3.30
2019-03-18T10:59:29.913Z,4.30
2019-03-18T11:00:29.904Z,8.20
2019-03-18T11:01:29.935Z,4.10
2019-03-18T11:02:29.965Z,3.20
2019-03-18T11:03:29.999Z,1.70
2019-03-18T11:04:30.032Z,5.30
2019-03-18T11:05:30.062Z,4.80
2019-03-18T11:06:30.092Z,2.00
2019-03-18T11:07:30.124Z,4.00
2019-03-18T11:08:30.156Z,3.00
2019-03-18T11:09:30.191Z,2.50
2019-03-18T11:10:30.217Z,2.00
2019-03-18T11:11:30.250Z,2.20
2019-03-18T11:12:30.304Z,4.20
2019-03-18T11:13:30.315Z,2.20
2019-03-18T11:14:30.346Z,3.50
2019-03-18T11:15:30.380Z,3.00
2019-03-18T11:16:31.362Z,1.80
2019-03-18T11:17:30.450Z,2.00
2019-03-18T11:18:30.483Z,2.70
2019-03-18T11:19:30.521Z,1.50
2019-03-18T11:20:30.557Z,3.30
2019-03-18T11:21:30.595Z,3.10
2019-03-18T11:22:30.634Z,3.00
2019-03-18T11:23:30.671Z,2.60
2019-03-18T11:24:30.716Z,3.50
2019-03-18T11:25:30.753Z,3.00
2019-03-18T11:26:30.788Z,2.70
2019-03-18T11:27:30.829Z,2.10
2019-03-18T11:28:30.872Z,3.60
2019-03-18T11:29:30.910Z,2.40
2019-03-18T11:30:30.958Z,3.50
2019-03-18T11:31:30.991Z,3.50
2019-03-18T11:32:31.033Z,3.90
2019-03-18T11:33:31.073Z,4.50
2019-03-18T11:34:31.115Z,3.10
2019-03-18T11:35:31.152Z,2.90
2019-03-18T11:36:31.733Z,1.70
2019-03-18T11:37:31.233Z,3.50
2019-03-18T11:38:32.097Z,1.80
2019-03-18T11:39:31.314Z,2.10
2019-03-18T11:40:31.352Z,2.30
2019-03-18T11:41:31.391Z,1.60
2019-03-18T11:42:31.428Z,5.20
2019-03-18T11:43:31.467Z,5.40
2019-03-18T11:44:31.514Z,2.80
2019-03-18T11:45:31.546Z,2.40
2019-03-18T11:46:31.584Z,3.20
2019-03-18T11:47:31.623Z,3.00
2019-03-18T11:48:31.664Z,2.30
2019-03-18T11:49:39.569Z,2.70
2019-03-18T11:50:31.741Z,1.70
2019-03-18T11:51:31.784Z,2.00
2019-03-18T11:52:32.909Z,1.40
2019-03-18T11:53:31.859Z,2.00
2019-03-18T11:54:31.951Z,2.30
2019-03-18T11:55:31.939Z,1.90
2019-03-18T11:56:31.983Z,2.70
2019-03-18T11:57:32.020Z,1.80
2019-03-18T11:58:32.056Z,1.80
2019-03-18T11:59:32.097Z,1.50
2019-03-18T12:00:32.136Z,1.70
2019-03-18T12:01:32.178Z,2.10
2019-03-18T12:02:32.216Z,1.60
2019-03-18T12:03:32.252Z,1.20
2019-03-18T12:04:32.920Z,1.30
2019-03-18T12:05:32.330Z,3.10
2019-03-18T12:06:32.365Z,1.40
2019-03-18T12:07:32.403Z,2.00
2019-03-18T12:08:32.442Z,1.10
2019-03-18T12:09:32.478Z,3.90
2019-03-18T12:10:32.518Z,5.80
2019-03-18T12:11:32.555Z,2.40
2019-03-18T12:12:32.587Z,2.80
2019-03-18T12:13:32.623Z,1.40
2019-03-18T12:14:32.685Z,1.50
2019-03-18T12:15:32.693Z,2.50
2019-03-18T12:16:32.729Z,1.20
2019-03-18T12:17:32.764Z,2.00
2019-03-18T12:18:32.798Z,1.60
2019-03-18T12:19:32.834Z,1.40
2019-03-18T12:20:33.307Z,1.80
2019-03-18T12:21:32.953Z,1.00
2019-03-18T12:22:35.529Z,1.30
2019-03-18T12:23:32.972Z,1.30
2019-03-18T12:24:33.008Z,1.30
2019-03-18T12:25:33.866Z,4.40
2019-03-18T12:26:33.075Z,1.30
2019-03-18T12:27:33.110Z,1.50
2019-03-18T12:28:33.147Z,1.80
2019-03-18T12:29:33.179Z,2.60
2019-03-18T12:30:33.213Z,1.30
2019-03-18T12:31:33.248Z,1.10
2019-03-18T12:32:33.283Z,3.80
2019-03-18T12:33:33.316Z,2.00
2019-03-18T12:34:33.351Z,1.60
2019-03-18T12:35:33.383Z,1.90
2019-03-18T12:36:33.417Z,2.70
2019-03-18T12:37:33.453Z,5.60
2019-03-18T12:38:33.485Z,1.40
2019-03-18T12:39:33.519Z,1.50
2019-03-18T12:40:33.557Z,1.40
2019-03-18T12:41:33.587Z,1.40
2019-03-18T12:42:33.619Z,1.30
2019-03-18T12:43:33.655Z,2.20
2019-03-18T12:44:33.686Z,1.70
2019-03-18T12:45:33.720Z,2.00
2019-03-18T12:46:33.752Z,1.80
2019-03-18T12:47:33.785Z,2.10
2019-03-18T12:48:33.817Z,1.70
2019-03-18T12:49:33.850Z,2.00
2019-03-18T12:50:54.575Z,2.50
2019-03-18T12:51:33.913Z,3.70
2019-03-18T12:52:33.946Z,1.40
2019-03-18T12:53:33.978Z,2.20
2019-03-18T12:54:34.011Z,2.00
2019-03-18T12:55:34.043Z,2.70
2019-03-18T12:56:34.073Z,3.80
2019-03-18T12:57:34.105Z,2.40
2019-03-18T12:58:34.137Z,3.40
2019-03-18T12:59:34.167Z,1.70
2019-03-18T13:00:34.198Z,2.00
2019-03-18T13:01:34.231Z,1.80
2019-03-18T13:02:34.261Z,1.70
2019-03-18T13:03:34.293Z,2.00
2019-03-18T13:04:34.356Z,3.40
2019-03-18T13:05:34.356Z,1.60
2019-03-18T13:06:34.385Z,1.70
2019-03-18T13:07:34.415Z,2.40
2019-03-18T13:08:34.452Z,2.00
2019-03-18T13:09:34.478Z,1.90
2019-03-18T13:10:34.509Z,2.20
2019-03-18T13:11:34.540Z,2.50
2019-03-18T13:12:34.571Z,2.10
2019-03-18T13:13:34.601Z,2.50
2019-03-18T13:14:34.633Z,2.00
2019-03-18T13:15:34.766Z,2.70
2019-03-18T13:16:34.695Z,1.80
2019-03-18T13:17:34.725Z,1.90
2019-03-18T13:18:34.756Z,3.30
2019-03-18T13:19:34.789Z,3.70
2019-03-18T13:20:34.820Z,2.00
2019-03-18T13:21:34.852Z,2.50
2019-03-18T13:22:34.880Z,1.80
2019-03-18T13:23:34.912Z,3.40
2019-03-18T13:24:34.943Z,3.10
2019-03-18T13:25:34.979Z,1.90